createdAt,value
2023-02-01T00:00:54.709Z,5.44
2023-02-01T00:03:57.872Z,5.39
2023-02-01T00:07:01.903Z,5.52
2023-02-01T00:10:09.306Z,5.54
2023-02-01T00:13:12.028Z,5.47
2023-02-01T00:16:18.211Z,5.53
2023-02-01T00:19:21.130Z,5.39
2023-02-01T00:22:23.753Z,5.49
2023-02-01T00:25:26.463Z,5.49
2023-02-01T00:28:29.130Z,5.56
2023-02-01T00:31:33.640Z,5.52
2023-02-01T00:34:36.466Z,5.58
2023-02-01T00:37:39.209Z,5.67
2023-02-01T00:40:41.958Z,5.72
2023-02-01T00:43:45.087Z,5.65
2023-02-01T00:46:49.310Z,5.65
2023-02-01T00:49:51.912Z,5.62
2023-02-01T00:52:54.601Z,5.72
2023-02-01T00:55:58.290Z,5.66
2023-02-01T00:59:00.896Z,5.48
2023-02-01T01:02:05.240Z,5.72
2023-02-01T01:05:08.782Z,5.57
2023-02-01T01:08:11.439Z,5.65
2023-02-01T01:11:15.915Z,5.51
2023-02-01T01:14:19.315Z,5.60
2023-02-01T01:17:23.330Z,5.61
2023-02-01T01:20:26.013Z,5.42
2023-02-01T01:23:29.860Z,5.61
2023-02-01T01:26:32.418Z,5.56
2023-02-01T01:29:35.356Z,5.52
2023-02-01T01:32:39.272Z,5.63
2023-02-01T01:35:42.153Z,5.71
2023-02-01T01:38:45.260Z,5.61
2023-02-01T01:41:47.842Z,5.59
2023-02-01T01:45:04.940Z,5.71
2023-02-01T01:48:13.547Z,5.73
2023-02-01T01:51:17.937Z,5.74
2023-02-01T01:54:23.876Z,5.75
2023-02-01T01:57:29.055Z,5.80
2023-02-01T02:00:32.242Z,5.83
2023-02-01T02:03:39.917Z,5.77
2023-02-01T02:06:46.490Z,5.82
2023-02-01T02:10:00.186Z,5.70
2023-02-01T02:13:03.696Z,5.80
2023-02-01T02:16:18.095Z,5.88
2023-02-01T02:19:39.491Z,5.90
2023-02-01T02:23:12.615Z,5.89
2023-02-01T02:26:43.413Z,5.80
2023-02-01T02:30:18.946Z,5.81
2023-02-01T02:33:37.792Z,5.89
2023-02-01T02:36:45.803Z,5.83
2023-02-01T02:39:53.084Z,5.78
2023-02-01T02:43:18.996Z,5.86
2023-02-01T02:46:42.784Z,6.03
2023-02-01T02:50:12.730Z,5.89
2023-02-01T02:53:35.029Z,5.98
2023-02-01T02:56:56.051Z,5.91
2023-02-01T03:00:18.048Z,5.89
2023-02-01T03:03:38.517Z,5.81
2023-02-01T03:06:42.430Z,5.79
2023-02-01T03:09:46.121Z,5.93
2023-02-01T03:12:58.420Z,5.87
2023-02-01T03:16:04.583Z,5.85
2023-02-01T03:19:09.342Z,5.90
2023-02-01T03:22:15.163Z,5.88
2023-02-01T03:25:22.101Z,5.84
2023-02-01T03:28:25.765Z,5.87
2023-02-01T03:31:29.932Z,5.90
2023-02-01T03:34:32.649Z,5.81
2023-02-01T03:37:36.676Z,5.83
2023-02-01T03:40:39.775Z,5.82
2023-02-01T03:43:50.477Z,5.76
2023-02-01T03:46:56.029Z,5.81
2023-02-01T03:50:02.404Z,5.81
2023-02-01T03:53:09.452Z,5.96
2023-02-01T03:56:13.148Z,5.95
2023-02-01T03:59:16.535Z,6.00
2023-02-01T04:02:19.224Z,5.93
2023-02-01T04:05:22.062Z,5.84
2023-02-01T04:08:26.336Z,5.71
2023-02-01T04:11:30.174Z,5.81
2023-02-01T04:14:32.712Z,5.88
2023-02-01T04:17:35.718Z,5.81
2023-02-01T04:20:38.347Z,5.96
2023-02-01T04:23:42.389Z,5.97
2023-02-01T04:26:45.352Z,5.99
2023-02-01T04:29:48.021Z,6.06
2023-02-01T04:32:50.738Z,5.90
2023-02-01T04:35:53.376Z,5.94
2023-02-01T04:38:57.355Z,5.77
2023-02-01T04:42:00.103Z,5.80
2023-02-01T04:45:04.161Z,5.75
2023-02-01T04:48:07.116Z,5.82
2023-02-01T04:51:10.866Z,5.93
2023-02-01T04:54:14.751Z,6.06
2023-02-01T04:57:17.360Z,6.05
2023-02-01T05:00:21.193Z,6.12
2023-02-01T05:03:24.043Z,6.12
2023-02-01T05:06:26.887Z,5.97
2023-02-01T05:09:30.904Z,5.98
2023-02-01T05:12:51.022Z,6.05
2023-02-01T05:15:54.046Z,6.24
2023-02-01T05:18:56.891Z,6.18
2023-02-01T05:21:59.560Z,6.29
2023-02-01T05:25:03.647Z,6.38
2023-02-01T05:28:06.703Z,6.35
2023-02-01T05:31:11.906Z,6.35
2023-02-01T05:34:14.626Z,6.34
2023-02-01T05:37:17.311Z,6.38
2023-02-01T05:40:21.855Z,6.44
2023-02-01T05:43:24.764Z,6.41
2023-02-01T05:46:27.783Z,6.39
2023-02-01T05:49:30.730Z,6.60
2023-02-01T05:52:33.512Z,6.60
2023-02-01T05:55:38.258Z,6.49
2023-02-01T05:58:41.553Z,6.49
2023-02-01T06:01:44.366Z,6.30
2023-02-01T06:04:46.929Z,5.97
2023-02-01T06:07:50.769Z,5.65
2023-02-01T06:10:59.723Z,5.64
2023-02-01T06:14:02.408Z,5.48
2023-02-01T06:17:06.582Z,5.42
2023-02-01T06:20:12.018Z,5.34
2023-02-01T06:23:14.840Z,5.40
2023-02-01T06:26:19.363Z,5.40
2023-02-01T06:29:22.048Z,5.51
2023-02-01T06:32:24.957Z,5.57
2023-02-01T06:35:27.741Z,5.71
2023-02-01T06:38:30.508Z,5.86
2023-02-01T06:41:35.654Z,5.94
2023-02-01T06:44:38.389Z,6.01
2023-02-01T06:47:41.502Z,6.06
2023-02-01T06:50:44.199Z,6.17
2023-02-01T06:53:46.815Z,6.16
2023-02-01T06:56:50.922Z,6.26
2023-02-01T06:59:53.586Z,6.33
2023-02-01T07:02:56.256Z,6.30
2023-02-01T07:06:00.534Z,6.34
2023-02-01T07:09:03.212Z,6.40
2023-02-01T07:12:08.128Z,6.55
2023-02-01T07:15:11.382Z,6.64
2023-02-01T07:18:15.262Z,6.55
2023-02-01T07:21:17.787Z,6.72
2023-02-01T07:24:20.567Z,6.76
2023-02-01T07:27:26.669Z,6.83
2023-02-01T07:30:29.458Z,6.81
2023-02-01T07:33:32.368Z,6.76
2023-02-01T07:36:35.413Z,6.58
2023-02-01T07:39:38.037Z,6.86
2023-02-01T07:42:42.089Z,6.91
2023-02-01T07:45:45.293Z,6.97
2023-02-01T07:48:48.090Z,6.95
2023-02-01T07:51:50.993Z,7.03
2023-02-01T07:54:53.599Z,7.07
2023-02-01T07:58:01.124Z,7.20
2023-02-01T08:01:22.279Z,7.05
2023-02-01T08:04:25.255Z,7.14
2023-02-01T08:07:27.914Z,7.33
2023-02-01T08:10:30.572Z,7.32
2023-02-01T08:13:35.277Z,7.36
2023-02-01T08:16:38.866Z,7.35
2023-02-01T08:19:41.515Z,7.11
2023-02-01T08:22:44.335Z,7.18
2023-02-01T08:25:47.507Z,7.32
2023-02-01T08:28:53.356Z,7.65
2023-02-01T08:31:56.319Z,7.80
2023-02-01T08:34:59.048Z,7.77
2023-02-01T08:38:01.936Z,7.94
2023-02-01T08:41:08.905Z,8.09
2023-02-01T08:44:12.934Z,8.45
2023-02-01T08:47:15.703Z,8.23
2023-02-01T08:50:19.636Z,8.27
2023-02-01T08:53:22.228Z,8.28
2023-02-01T08:56:25.873Z,8.14
2023-02-01T08:59:30.423Z,8.19
2023-02-01T09:02:33.243Z,8.02
2023-02-01T09:05:48.787Z,7.98
2023-02-01T09:08:52.184Z,7.96
2023-02-01T09:11:54.898Z,7.73
2023-02-01T09:15:00.624Z,7.76
2023-02-01T09:18:03.375Z,7.93
2023-02-01T09:21:07.795Z,7.90
2023-02-01T09:24:10.895Z,7.76
2023-02-01T09:27:13.717Z,7.78
2023-02-01T09:30:18.127Z,8.01
2023-02-01T09:33:22.365Z,8.29
2023-02-01T09:36:25.431Z,8.51
2023-02-01T09:39:28.024Z,8.52
2023-02-01T09:42:49.359Z,8.78
2023-02-01T09:45:59.450Z,8.60
2023-02-01T09:49:04.937Z,9.00
2023-02-01T09:52:10.222Z,9.21
2023-02-01T09:55:17.036Z,9.16
2023-02-01T09:58:24.002Z,9.00
2023-02-01T10:01:30.295Z,9.08
2023-02-01T10:04:34.439Z,8.64
2023-02-01T10:07:40.895Z,8.28
2023-02-01T10:10:47.843Z,8.78
2023-02-01T10:13:57.086Z,8.13
2023-02-01T10:17:06.536Z,8.03
2023-02-01T10:20:13.267Z,8.66
2023-02-01T10:23:34.633Z,8.95
2023-02-01T10:26:40.090Z,8.84
2023-02-01T10:29:47.075Z,9.12
2023-02-01T10:32:53.773Z,9.08
2023-02-01T10:36:00.949Z,9.50
2023-02-01T10:39:07.965Z,9.34
2023-02-01T10:42:11.660Z,8.96
2023-02-01T10:45:17.450Z,9.19
2023-02-01T10:48:21.501Z,8.97
2023-02-01T10:51:27.147Z,9.14
2023-02-01T10:54:36.000Z,9.40
2023-02-01T10:57:38.687Z,9.27
2023-02-01T11:00:47.708Z,8.83
2023-02-01T11:03:55.971Z,8.86
2023-02-01T11:07:08.885Z,8.84
2023-02-01T11:10:36.647Z,9.25
2023-02-01T11:13:40.742Z,9.26
2023-02-01T11:16:50.002Z,9.78
2023-02-01T11:20:00.955Z,9.29
2023-02-01T11:23:03.877Z,9.15
2023-02-01T11:26:13.799Z,8.67
2023-02-01T11:29:21.391Z,8.56
2023-02-01T11:32:25.732Z,8.53
2023-02-01T11:35:31.120Z,8.85
2023-02-01T11:38:35.694Z,9.03
2023-02-01T11:41:44.771Z,8.75
2023-02-01T11:44:48.547Z,9.21
2023-02-01T11:47:52.780Z,8.91
2023-02-01T11:51:07.119Z,8.89
2023-02-01T11:54:27.936Z,9.40
2023-02-01T11:57:45.109Z,9.79
2023-02-01T12:01:03.977Z,10.01
2023-02-01T12:04:26.419Z,9.75
2023-02-01T12:07:41.972Z,9.61
2023-02-01T12:10:54.439Z,9.05
2023-02-01T12:14:06.940Z,8.76
2023-02-01T12:17:34.587Z,8.90
2023-02-01T12:20:57.896Z,8.56
2023-02-01T12:24:21.213Z,8.63
2023-02-01T12:27:48.133Z,8.85
2023-02-01T12:31:01.846Z,8.90
2023-02-01T12:34:31.434Z,8.71
2023-02-01T12:37:47.117Z,8.73
2023-02-01T12:41:04.828Z,8.71
2023-02-01T12:44:12.424Z,8.76
2023-02-01T12:47:21.178Z,8.91
2023-02-01T12:50:26.981Z,8.66
2023-02-01T12:53:33.752Z,8.37
2023-02-01T12:56:42.096Z,8.17
2023-02-01T12:59:46.956Z,8.02
2023-02-01T13:02:54.911Z,7.88
2023-02-01T13:06:01.168Z,7.70
2023-02-01T13:09:10.110Z,7.88
2023-02-01T13:12:18.281Z,7.85
2023-02-01T13:15:25.357Z,7.93
2023-02-01T13:18:36.715Z,8.07
2023-02-01T13:21:42.456Z,8.52
2023-02-01T13:24:47.223Z,8.77
2023-02-01T13:27:51.471Z,8.63
2023-02-01T13:31:10.031Z,8.15
2023-02-01T13:34:42.272Z,8.59
2023-02-01T13:38:01.739Z,8.67
2023-02-01T13:41:15.397Z,8.90
2023-02-01T13:44:28.421Z,8.69
2023-02-01T13:47:33.948Z,8.52
2023-02-01T13:50:39.752Z,8.25
2023-02-01T13:53:46.927Z,7.94
2023-02-01T13:56:49.726Z,7.73
2023-02-01T13:59:55.873Z,7.57
2023-02-01T14:03:16.987Z,7.64
2023-02-01T14:06:39.112Z,7.81
2023-02-01T14:09:41.799Z,8.12
2023-02-01T14:12:48.422Z,8.31
2023-02-01T14:16:14.737Z,8.72
2023-02-01T14:19:22.818Z,8.58
2023-02-01T14:22:35.813Z,8.43
2023-02-01T14:25:38.436Z,8.37
2023-02-01T14:29:01.285Z,8.30
2023-02-01T14:32:08.917Z,8.12
2023-02-01T14:35:21.859Z,8.15
2023-02-01T14:38:24.886Z,8.39
2023-02-01T14:41:32.374Z,8.18
2023-02-01T14:44:37.943Z,8.20
2023-02-01T14:47:43.258Z,8.02
2023-02-01T14:50:46.697Z,8.03
2023-02-01T14:53:49.782Z,8.10
2023-02-01T14:56:52.664Z,7.92
2023-02-01T14:59:58.427Z,8.00
2023-02-01T15:03:26.084Z,7.94
2023-02-01T15:06:33.300Z,8.00
2023-02-01T15:09:37.476Z,7.82
2023-02-01T15:12:46.424Z,7.87
2023-02-01T15:16:05.633Z,7.68
2023-02-01T15:19:15.115Z,7.65
2023-02-01T15:22:20.916Z,7.72
2023-02-01T15:25:25.986Z,7.69
2023-02-01T15:28:29.043Z,7.40
2023-02-01T15:31:37.316Z,7.56
2023-02-01T15:34:48.935Z,7.69
2023-02-01T15:37:52.970Z,7.55
2023-02-01T15:40:56.987Z,7.85
2023-02-01T15:47:37.113Z,7.63
2023-02-01T15:50:41.423Z,7.95
2023-02-01T15:53:47.260Z,7.90
2023-02-01T15:56:54.347Z,7.94
2023-02-01T15:59:57.583Z,7.76
2023-02-01T16:03:01.649Z,7.77
2023-02-01T16:06:07.912Z,7.86
2023-02-01T16:09:13.626Z,7.83
2023-02-01T16:12:29.335Z,7.89
2023-02-01T16:15:33.332Z,7.75
2023-02-01T16:18:35.972Z,7.69
2023-02-01T16:21:40.626Z,7.80
2023-02-01T16:24:43.475Z,7.73
2023-02-01T16:27:46.167Z,7.85
2023-02-01T16:30:50.704Z,7.86
2023-02-01T16:33:53.726Z,7.87
2023-02-01T16:36:58.307Z,7.70
2023-02-01T16:40:01.379Z,7.85
2023-02-01T16:43:04.519Z,7.73
2023-02-01T16:46:08.705Z,7.84
2023-02-01T16:49:20.389Z,7.53
2023-02-01T16:52:26.478Z,7.71
2023-02-01T16:55:29.072Z,7.50
2023-02-01T16:58:31.685Z,7.45
2023-02-01T17:01:34.536Z,7.57
2023-02-01T17:04:37.833Z,7.49
2023-02-01T17:07:42.515Z,7.26
2023-02-01T17:10:45.310Z,7.28
2023-02-01T17:13:48.434Z,7.40
2023-02-01T17:16:52.657Z,7.37
2023-02-01T17:19:55.336Z,7.32
2023-02-01T17:22:59.700Z,7.36
2023-02-01T17:26:03.624Z,7.42
2023-02-01T17:29:06.193Z,7.36
2023-02-01T17:32:14.046Z,7.48
2023-02-01T17:35:21.117Z,7.61
2023-02-01T17:38:25.280Z,7.59
2023-02-01T17:41:28.102Z,7.60
2023-02-01T17:44:30.806Z,7.38
2023-02-01T17:47:34.563Z,7.22
2023-02-01T17:50:37.363Z,7.30
2023-02-01T17:53:41.317Z,7.55
2023-02-01T17:56:43.904Z,7.53
2023-02-01T17:59:46.731Z,7.49
2023-02-01T18:02:49.727Z,7.43
2023-02-01T18:05:53.662Z,7.30
2023-02-01T18:08:57.869Z,7.31
2023-02-01T18:12:00.505Z,7.36
2023-02-01T18:15:03.286Z,7.36
2023-02-01T18:18:05.932Z,7.48
2023-02-01T18:21:09.999Z,7.42
2023-02-01T18:24:16.008Z,7.43
2023-02-01T18:27:19.935Z,7.35
2023-02-01T18:30:24.669Z,7.32
2023-02-01T18:33:27.443Z,7.45
2023-02-01T18:36:30.453Z,7.47
2023-02-01T18:39:34.445Z,7.48
2023-02-01T18:42:37.087Z,7.52
2023-02-01T18:45:41.619Z,7.52
2023-02-01T18:48:44.740Z,7.58
2023-02-01T18:51:47.679Z,7.49
2023-02-01T18:54:59.466Z,7.61
2023-02-01T18:58:06.613Z,7.60
2023-02-01T19:01:14.401Z,7.48
2023-02-01T19:04:25.676Z,7.44
2023-02-01T19:07:28.929Z,7.59
2023-02-01T19:10:36.690Z,7.65
2023-02-01T19:13:39.931Z,7.46
2023-02-01T19:16:42.692Z,7.48
2023-02-01T19:19:56.822Z,7.64
2023-02-01T19:23:02.529Z,7.36
2023-02-01T19:26:11.975Z,7.44
2023-02-01T19:29:15.904Z,7.25
2023-02-01T19:32:20.813Z,7.36
2023-02-01T19:35:23.981Z,7.34
2023-02-01T19:38:26.869Z,7.31
2023-02-01T19:41:31.472Z,7.29
2023-02-01T19:44:34.610Z,7.36
2023-02-01T19:47:37.300Z,7.40
2023-02-01T19:50:40.808Z,7.20
2023-02-01T19:53:43.385Z,7.20
2023-02-01T19:56:49.038Z,7.35
2023-02-01T19:59:51.577Z,7.31
2023-02-01T20:02:53.420Z,7.45
2023-02-01T20:05:57.327Z,7.32
2023-02-01T20:09:00.071Z,7.27
2023-02-01T20:12:04.579Z,7.38
2023-02-01T20:15:08.789Z,7.32
2023-02-01T20:18:11.647Z,7.40
2023-02-01T20:21:14.436Z,7.64
2023-02-01T20:24:18.702Z,7.58
2023-02-01T20:27:24.064Z,7.56
2023-02-01T20:30:29.299Z,7.54
2023-02-01T20:33:32.810Z,7.65
2023-02-01T20:36:35.516Z,7.67
2023-02-01T20:39:38.324Z,7.53
2023-02-01T20:42:42.344Z,7.69
2023-02-01T20:45:45.681Z,7.60
2023-02-01T20:48:49.833Z,7.50
2023-02-01T20:51:52.776Z,7.62
2023-02-01T20:54:55.481Z,7.70
2023-02-01T20:57:59.454Z,7.67
2023-02-01T21:01:02.424Z,7.54
2023-02-01T21:04:05.115Z,7.65
2023-02-01T21:07:07.684Z,7.60
2023-02-01T21:10:11.593Z,7.51
2023-02-01T21:13:15.869Z,7.63
2023-02-01T21:16:21.269Z,7.69
2023-02-01T21:19:28.184Z,7.51
2023-02-01T21:22:30.928Z,7.68
2023-02-01T21:25:34.205Z,7.72
2023-02-01T21:28:38.245Z,7.68
2023-02-01T21:31:42.530Z,7.83
2023-02-01T21:34:45.382Z,7.75
2023-02-01T21:37:48.005Z,7.51
2023-02-01T21:41:11.332Z,7.84
2023-02-01T21:44:15.610Z,7.75
2023-02-01T21:47:21.392Z,7.77
2023-02-01T21:50:29.446Z,7.86
2023-02-01T21:53:32.132Z,7.55
2023-02-01T21:56:35.581Z,7.65
2023-02-01T21:59:40.078Z,7.78
2023-02-01T22:02:42.858Z,7.69
2023-02-01T22:05:50.579Z,7.86
2023-02-01T22:08:55.155Z,7.69
2023-02-01T22:11:58.158Z,7.88
2023-02-01T22:15:02.365Z,7.91
2023-02-01T22:18:05.234Z,7.82
2023-02-01T22:21:07.831Z,7.92
2023-02-01T22:24:11.848Z,7.72
2023-02-01T22:27:14.960Z,7.60
2023-02-01T22:30:19.774Z,7.60
2023-02-01T22:33:22.665Z,7.67
2023-02-01T22:36:25.899Z,7.60
2023-02-01T22:39:28.445Z,7.70
2023-02-01T22:42:31.206Z,7.66
2023-02-01T22:45:37.238Z,7.63
2023-02-01T22:48:41.901Z,7.58
2023-02-01T22:51:44.570Z,7.53
2023-02-01T22:54:47.233Z,7.41
2023-02-01T22:57:49.853Z,7.52
2023-02-01T23:00:53.840Z,7.47
2023-02-01T23:04:00.547Z,7.38
2023-02-01T23:07:03.384Z,7.44
2023-02-01T23:10:06.584Z,7.45
2023-02-01T23:13:09.302Z,7.43
2023-02-01T23:16:14.907Z,7.42
2023-02-01T23:19:18.370Z,7.57
2023-02-01T23:22:20.969Z,7.24
2023-02-01T23:25:23.848Z,7.28
2023-02-01T23:28:27.827Z,7.23
2023-02-01T23:31:32.369Z,7.18
2023-02-01T23:34:35.809Z,7.26
2023-02-01T23:37:40.620Z,7.09
2023-02-01T23:40:43.219Z,6.87
2023-02-01T23:43:58.549Z,6.94
2023-02-01T23:47:02.488Z,6.94
2023-02-01T23:50:05.601Z,7.02
2023-02-01T23:53:08.292Z,7.03
2023-02-01T23:56:18.077Z,7.18
2023-02-01T23:59:23.245Z,7.17
